createdAt,value
2022-10-09T00:00:23.132Z,6.72
2022-10-09T00:01:57.140Z,7.88
2022-10-09T00:03:30.460Z,8.30
2022-10-09T00:05:05.667Z,7.57
2022-10-09T00:06:39.518Z,7.70
2022-10-09T00:08:13.123Z,8.10
2022-10-09T00:09:47.262Z,8.50
2022-10-09T00:11:22.552Z,7.50
2022-10-09T00:12:54.748Z,6.25
2022-10-09T00:14:28.023Z,5.82
2022-10-09T00:16:03.355Z,5.40
2022-10-09T00:17:36.867Z,6.78
2022-10-09T00:19:09.986Z,5.93
2022-10-09T00:20:46.762Z,5.70
2022-10-09T00:22:20.054Z,5.50
2022-10-09T00:23:55.550Z,5.03
2022-10-09T00:25:29.109Z,5.68
2022-10-09T00:27:02.272Z,5.38
2022-10-09T00:28:38.668Z,5.22
2022-10-09T00:30:13.473Z,4.88
2022-10-09T00:31:46.666Z,5.60
2022-10-09T00:33:19.355Z,5.80
2022-10-09T00:34:52.939Z,5.90
2022-10-09T00:36:28.290Z,4.65
2022-10-09T00:38:00.434Z,5.13
2022-10-09T00:39:33.674Z,4.65
2022-10-09T00:41:07.795Z,4.43
2022-10-09T00:42:41.509Z,5.32
2022-10-09T00:44:57.773Z,5.00
2022-10-09T00:46:37.803Z,5.10
2022-10-09T00:48:12.890Z,5.28
2022-10-09T00:49:46.402Z,6.15
2022-10-09T00:51:19.589Z,5.20
2022-10-09T00:52:58.533Z,5.05
2022-10-09T00:54:35.677Z,5.22
2022-10-09T00:56:09.271Z,4.70
2022-10-09T00:57:44.413Z,5.93
2022-10-09T00:59:18.933Z,6.18
2022-10-09T01:00:51.632Z,5.55
2022-10-09T01:02:24.880Z,5.50
2022-10-09T01:03:58.340Z,6.75
2022-10-09T01:05:44.376Z,6.63
2022-10-09T01:07:34.626Z,5.60
2022-10-09T01:09:13.694Z,4.88
2022-10-09T01:10:53.124Z,5.65
2022-10-09T01:12:37.616Z,5.78
2022-10-09T01:14:19.774Z,6.10
2022-10-09T01:15:56.189Z,6.00
2022-10-09T01:17:35.597Z,5.38
2022-10-09T01:19:21.592Z,5.82
2022-10-09T01:20:59.407Z,5.13
2022-10-09T01:22:47.381Z,5.43
2022-10-09T01:24:31.282Z,4.55
2022-10-09T01:26:14.656Z,4.97
2022-10-09T01:27:49.523Z,5.28
2022-10-09T01:29:24.770Z,4.88
2022-10-09T01:31:01.454Z,5.18
2022-10-09T01:32:39.260Z,5.30
2022-10-09T01:34:14.256Z,5.28
2022-10-09T01:35:48.520Z,4.70
2022-10-09T01:37:24.509Z,5.07
2022-10-09T01:38:59.932Z,5.65
2022-10-09T01:40:33.375Z,5.50
2022-10-09T01:42:07.806Z,5.85
2022-10-09T01:43:43.351Z,5.35
2022-10-09T01:45:17.221Z,4.70
2022-10-09T01:46:49.764Z,5.32
2022-10-09T01:48:26.044Z,5.47
2022-10-09T01:50:05.219Z,5.60
2022-10-09T01:51:45.360Z,5.35
2022-10-09T01:53:21.283Z,5.55
2022-10-09T01:55:09.259Z,5.47
2022-10-09T01:56:44.928Z,5.57
2022-10-09T01:58:23.191Z,4.85
2022-10-09T02:00:00.507Z,5.03
2022-10-09T02:01:37.160Z,5.10
2022-10-09T02:03:14.633Z,5.13
2022-10-09T02:04:49.939Z,5.20
2022-10-09T02:06:22.141Z,4.97
2022-10-09T02:07:56.659Z,5.13
2022-10-09T02:09:31.760Z,4.43
2022-10-09T02:11:05.586Z,4.90
2022-10-09T02:12:43.808Z,5.30
2022-10-09T02:14:17.507Z,5.10
2022-10-09T02:15:57.356Z,5.45
2022-10-09T02:17:34.967Z,4.95
2022-10-09T02:19:14.321Z,5.35
2022-10-09T02:20:53.123Z,5.47
2022-10-09T02:22:28.918Z,5.00
2022-10-09T02:24:03.607Z,4.80
2022-10-09T02:25:37.347Z,4.95
2022-10-09T02:27:12.501Z,5.15
2022-10-09T02:28:46.336Z,4.90
2022-10-09T02:30:22.081Z,4.93
2022-10-09T02:31:55.832Z,5.00
2022-10-09T02:33:32.538Z,4.75
2022-10-09T02:35:06.649Z,5.13
2022-10-09T02:36:39.788Z,4.18
2022-10-09T02:38:12.989Z,4.85
2022-10-09T02:39:46.550Z,5.10
2022-10-09T02:41:18.751Z,4.93
2022-10-09T02:42:52.015Z,5.00
2022-10-09T02:44:25.314Z,4.85
2022-10-09T02:45:57.836Z,5.00
2022-10-09T02:47:32.468Z,4.72
2022-10-09T02:49:05.890Z,4.78
2022-10-09T02:50:37.995Z,4.28
2022-10-09T02:52:11.712Z,4.80
2022-10-09T02:53:45.218Z,5.05
2022-10-09T02:55:18.380Z,5.35
2022-10-09T02:56:50.548Z,5.22
2022-10-09T02:58:24.240Z,5.22
2022-10-09T02:59:57.774Z,4.68
2022-10-09T03:01:32.302Z,5.40
2022-10-09T03:03:06.246Z,5.80
2022-10-09T03:04:39.677Z,5.32
2022-10-09T03:06:14.235Z,4.75
2022-10-09T03:07:51.555Z,5.15
2022-10-09T03:09:25.085Z,4.60
2022-10-09T03:10:58.741Z,4.78
2022-10-09T03:12:31.891Z,5.18
2022-10-09T03:14:05.022Z,5.30
2022-10-09T03:15:38.732Z,4.85
2022-10-09T03:17:12.186Z,4.70
2022-10-09T03:18:47.236Z,5.07
2022-10-09T03:20:19.564Z,4.43
2022-10-09T03:21:52.744Z,6.00
2022-10-09T03:23:26.155Z,5.30
2022-10-09T03:24:59.373Z,4.82
2022-10-09T03:26:32.804Z,5.53
2022-10-09T03:28:06.340Z,5.20
2022-10-09T03:29:38.619Z,4.70
2022-10-09T03:31:22.597Z,5.32
2022-10-09T03:33:00.949Z,4.82
2022-10-09T03:34:34.465Z,4.85
2022-10-09T03:36:08.831Z,4.45
2022-10-09T03:37:42.091Z,4.53
2022-10-09T03:39:15.482Z,4.57
2022-10-09T03:40:47.722Z,4.78
2022-10-09T03:42:21.011Z,4.63
2022-10-09T03:43:54.159Z,5.00
2022-10-09T03:45:26.511Z,5.10
2022-10-09T03:47:00.370Z,4.97
2022-10-09T03:48:33.746Z,4.60
2022-10-09T03:50:09.499Z,4.70
2022-10-09T03:51:42.784Z,4.47
2022-10-09T03:53:15.594Z,4.50
2022-10-09T03:54:49.078Z,4.88
2022-10-09T03:56:21.211Z,4.57
2022-10-09T03:57:54.566Z,4.60
2022-10-09T03:59:27.876Z,4.45
2022-10-09T04:01:00.220Z,4.97
2022-10-09T04:02:34.453Z,4.78
2022-10-09T04:04:08.142Z,4.00
2022-10-09T04:05:42.657Z,4.30
2022-10-09T04:07:16.615Z,4.85
2022-10-09T04:08:48.740Z,5.03
2022-10-09T04:10:22.154Z,5.28
2022-10-09T04:11:55.630Z,5.05
2022-10-09T04:13:28.977Z,5.68
2022-10-09T04:15:02.187Z,5.60
2022-10-09T04:16:34.565Z,6.22
2022-10-09T04:18:07.945Z,6.82
2022-10-09T04:19:41.160Z,6.85
2022-10-09T04:21:15.772Z,7.20
2022-10-09T04:22:49.292Z,7.97
2022-10-09T04:24:22.868Z,8.05
2022-10-09T04:25:57.110Z,8.32
2022-10-09T04:27:30.850Z,7.35
2022-10-09T04:29:03.208Z,8.35
2022-10-09T04:30:36.375Z,7.88
2022-10-09T04:32:10.270Z,7.38
2022-10-09T04:33:42.518Z,9.23
2022-10-09T04:35:16.880Z,10.57
2022-10-09T04:36:51.439Z,5.25
2022-10-09T04:38:24.564Z,4.97
2022-10-09T04:39:57.735Z,5.15
2022-10-09T04:41:32.573Z,5.18
2022-10-09T04:43:07.996Z,7.07
2022-10-09T04:44:41.545Z,4.88
2022-10-09T04:46:16.220Z,5.18
2022-10-09T04:47:49.636Z,5.25
2022-10-09T04:49:22.870Z,4.68
2022-10-09T04:50:56.052Z,4.88
2022-10-09T04:52:31.096Z,5.15
2022-10-09T04:54:04.387Z,5.93
2022-10-09T04:55:41.601Z,6.38
2022-10-09T04:57:15.163Z,5.75
2022-10-09T04:58:50.305Z,5.03
2022-10-09T05:00:24.033Z,5.47
2022-10-09T05:01:57.228Z,4.72
2022-10-09T05:03:30.468Z,5.35
2022-10-09T05:05:03.887Z,5.70
2022-10-09T05:06:37.224Z,5.40
2022-10-09T05:08:11.807Z,4.80
2022-10-09T05:09:45.109Z,4.63
2022-10-09T05:11:19.477Z,4.55
2022-10-09T05:12:52.845Z,6.22
2022-10-09T05:14:26.300Z,4.57
2022-10-09T05:16:02.386Z,5.10
2022-10-09T05:17:35.869Z,4.43
2022-10-09T05:19:09.275Z,4.35
2022-10-09T05:20:42.718Z,4.40
2022-10-09T05:22:15.998Z,4.57
2022-10-09T05:23:50.048Z,4.53
2022-10-09T05:25:23.420Z,4.32
2022-10-09T05:26:56.853Z,4.22
2022-10-09T05:28:30.441Z,4.95
2022-10-09T05:30:03.741Z,5.35
2022-10-09T05:31:37.710Z,4.32
2022-10-09T05:33:11.461Z,4.40
2022-10-09T05:34:44.899Z,4.45
2022-10-09T05:36:18.646Z,5.05
2022-10-09T05:37:52.210Z,4.15
2022-10-09T05:39:27.021Z,4.60
2022-10-09T05:41:02.465Z,4.85
2022-10-09T05:42:35.596Z,4.68
2022-10-09T05:44:08.991Z,3.67
2022-10-09T05:45:42.317Z,4.93
2022-10-09T05:47:18.278Z,3.88
2022-10-09T05:48:55.339Z,4.40
2022-10-09T05:50:28.528Z,5.50
2022-10-09T05:52:02.180Z,4.65
2022-10-09T05:53:34.884Z,5.28
2022-10-09T05:55:09.942Z,3.58
2022-10-09T05:56:44.393Z,4.40
2022-10-09T05:58:17.640Z,4.00
2022-10-09T05:59:50.965Z,4.60
2022-10-09T06:01:24.847Z,4.47
2022-10-09T06:02:58.190Z,4.63
2022-10-09T06:04:31.635Z,4.43
2022-10-09T06:06:06.419Z,5.15
2022-10-09T06:07:39.577Z,4.82
2022-10-09T06:09:13.090Z,4.68
2022-10-09T06:10:47.618Z,5.15
2022-10-09T06:12:20.900Z,4.68
2022-10-09T06:13:53.136Z,5.53
2022-10-09T06:15:26.430Z,4.60
2022-10-09T06:17:01.472Z,4.72
2022-10-09T06:18:34.100Z,5.03
2022-10-09T06:20:07.986Z,4.72
2022-10-09T06:21:41.501Z,5.53
2022-10-09T06:23:13.823Z,5.47
2022-10-09T06:24:47.242Z,5.45
2022-10-09T06:26:23.054Z,5.50
2022-10-09T06:27:56.198Z,6.25
2022-10-09T06:29:30.379Z,6.28
2022-10-09T06:31:04.785Z,5.38
2022-10-09T06:32:37.993Z,6.50
2022-10-09T06:34:11.847Z,7.50
2022-10-09T06:35:44.238Z,7.53
2022-10-09T06:37:17.391Z,7.90
2022-10-09T06:38:51.053Z,7.40
2022-10-09T06:40:24.256Z,7.18
2022-10-09T06:41:59.011Z,7.95
2022-10-09T06:43:57.229Z,8.23
2022-10-09T06:45:31.007Z,8.10
2022-10-09T06:47:04.471Z,8.20
2022-10-09T06:48:39.304Z,8.73
2022-10-09T06:50:12.670Z,8.48
2022-10-09T06:51:46.166Z,8.40
2022-10-09T06:53:19.577Z,8.70
2022-10-09T06:54:52.732Z,9.57
2022-10-09T06:56:27.948Z,8.73
2022-10-09T06:58:02.503Z,9.60
2022-10-09T06:59:35.863Z,9.38
2022-10-09T07:01:11.339Z,9.00
2022-10-09T07:02:44.604Z,9.93
2022-10-09T07:04:18.784Z,10.05
2022-10-09T07:05:52.416Z,10.55
2022-10-09T07:07:24.860Z,9.07
2022-10-09T07:09:00.532Z,8.05
2022-10-09T07:10:33.760Z,7.88
2022-10-09T07:12:06.990Z,8.70
2022-10-09T07:13:42.681Z,9.23
2022-10-09T07:15:16.172Z,9.20
2022-10-09T07:16:50.204Z,7.18
2022-10-09T07:18:22.447Z,8.80
2022-10-09T07:19:55.576Z,9.13
2022-10-09T07:21:29.118Z,8.75
2022-10-09T07:23:02.575Z,7.63
2022-10-09T07:24:35.955Z,8.63
2022-10-09T07:26:14.624Z,9.48
2022-10-09T07:27:48.093Z,9.13
2022-10-09T07:29:22.654Z,8.88
2022-10-09T07:30:56.475Z,9.38
2022-10-09T07:32:29.758Z,7.93
2022-10-09T07:34:03.394Z,8.55
2022-10-09T07:35:36.580Z,8.02
2022-10-09T07:37:09.919Z,8.02
2022-10-09T07:38:43.199Z,8.32
2022-10-09T07:40:16.605Z,8.77
2022-10-09T07:41:51.716Z,7.90
2022-10-09T07:43:25.062Z,8.02
2022-10-09T07:44:59.805Z,7.60
2022-10-09T07:46:34.145Z,8.02
2022-10-09T07:48:08.028Z,8.07
2022-10-09T07:49:41.515Z,7.63
2022-10-09T07:51:16.385Z,8.00
2022-10-09T07:52:50.199Z,7.05
2022-10-09T07:54:22.750Z,6.22
2022-10-09T07:55:56.179Z,6.80
2022-10-09T07:57:29.318Z,5.63
2022-10-09T07:59:04.291Z,5.55
2022-10-09T08:00:39.029Z,6.15
2022-10-09T08:02:12.319Z,4.85
2022-10-09T08:03:44.702Z,5.13
2022-10-09T08:05:18.456Z,5.65
2022-10-09T08:06:51.716Z,4.82
2022-10-09T08:08:24.220Z,5.63
2022-10-09T08:09:57.434Z,4.82
2022-10-09T08:11:31.839Z,4.43
2022-10-09T08:13:05.044Z,3.97
2022-10-09T08:14:38.321Z,4.75
2022-10-09T08:16:13.902Z,3.55
2022-10-09T08:17:46.213Z,4.28
2022-10-09T08:19:19.440Z,3.08
2022-10-09T08:20:59.938Z,3.15
2022-10-09T08:22:33.175Z,2.85
2022-10-09T08:24:07.047Z,4.03
2022-10-09T08:25:40.298Z,6.28
2022-10-09T08:27:13.599Z,4.57
2022-10-09T08:28:51.000Z,4.00
2022-10-09T08:30:24.439Z,4.53
2022-10-09T08:31:59.140Z,4.22
2022-10-09T08:33:32.578Z,4.85
2022-10-09T08:35:06.453Z,4.32
2022-10-09T08:36:39.820Z,4.10
2022-10-09T08:38:30.929Z,5.32
2022-10-09T08:40:09.057Z,4.13
2022-10-09T08:41:48.097Z,6.40
2022-10-09T08:43:26.861Z,6.75
2022-10-09T08:45:00.140Z,4.97
2022-10-09T08:46:43.920Z,4.82
2022-10-09T08:48:23.645Z,4.82
2022-10-09T08:50:01.467Z,6.07
2022-10-09T08:51:39.834Z,4.90
2022-10-09T08:53:26.748Z,4.15
2022-10-09T08:55:05.108Z,4.95
2022-10-09T08:56:38.602Z,4.47
2022-10-09T08:58:17.291Z,5.25
2022-10-09T08:59:50.658Z,4.75
2022-10-09T09:01:32.879Z,4.00
2022-10-09T09:03:44.926Z,4.18
2022-10-09T09:05:31.661Z,5.32
2022-10-09T09:07:13.493Z,4.82
2022-10-09T09:08:53.436Z,4.60
2022-10-09T09:10:38.108Z,5.55
2022-10-09T09:12:19.257Z,4.80
2022-10-09T09:14:03.478Z,4.82
2022-10-09T09:15:50.075Z,4.97
2022-10-09T09:17:34.512Z,4.88
2022-10-09T09:19:26.737Z,4.55
2022-10-09T09:21:12.260Z,4.40
2022-10-09T09:22:49.791Z,4.57
2022-10-09T09:24:39.135Z,4.43
2022-10-09T09:26:16.734Z,4.10
2022-10-09T09:27:50.565Z,4.07
2022-10-09T09:29:25.107Z,4.40
2022-10-09T09:31:01.738Z,4.28
2022-10-09T09:32:35.364Z,5.30
2022-10-09T09:34:14.324Z,5.30
2022-10-09T09:35:53.358Z,4.20
2022-10-09T09:37:26.774Z,3.90
2022-10-09T09:39:54.300Z,3.72
2022-10-09T09:40:54.962Z,4.30
2022-10-09T09:42:29.793Z,4.47
2022-10-09T09:44:03.164Z,3.80
2022-10-09T09:45:36.587Z,4.00
2022-10-09T09:47:16.444Z,4.13
2022-10-09T09:48:50.742Z,4.32
2022-10-09T09:50:48.462Z,3.70
2022-10-09T09:52:30.123Z,3.60
2022-10-09T09:54:07.798Z,4.45
2022-10-09T09:55:41.527Z,3.85
2022-10-09T09:57:21.002Z,3.75
2022-10-09T09:58:55.347Z,3.58
2022-10-09T10:00:28.852Z,3.33
2022-10-09T10:02:04.356Z,3.47
2022-10-09T10:03:37.778Z,3.40
2022-10-09T10:05:19.100Z,3.40
2022-10-09T10:06:53.642Z,3.60
2022-10-09T10:08:28.386Z,3.55
2022-10-09T10:10:06.957Z,8.23
2022-10-09T10:11:45.835Z,3.05
2022-10-09T10:13:21.387Z,6.40
2022-10-09T10:14:54.843Z,2.97
2022-10-09T10:16:30.302Z,3.65
2022-10-09T10:18:05.656Z,3.38
2022-10-09T10:19:39.726Z,2.83
2022-10-09T10:21:15.580Z,2.80
2022-10-09T10:22:53.718Z,3.42
2022-10-09T10:24:32.850Z,2.97
2022-10-09T10:26:14.490Z,3.10
2022-10-09T10:27:51.933Z,2.80
2022-10-09T10:29:30.719Z,2.75
2022-10-09T10:31:09.550Z,3.47
2022-10-09T10:32:52.405Z,3.35
2022-10-09T10:34:29.347Z,3.47
2022-10-09T10:36:02.688Z,3.55
2022-10-09T10:37:43.946Z,3.35
2022-10-09T10:39:26.470Z,3.03
2022-10-09T10:41:09.832Z,3.15
2022-10-09T10:42:50.904Z,3.40
2022-10-09T10:44:29.596Z,3.92
2022-10-09T10:46:12.461Z,3.60
2022-10-09T10:47:53.048Z,2.97
2022-10-09T10:49:31.656Z,2.90
2022-10-09T10:51:17.459Z,3.58
2022-10-09T10:53:02.751Z,2.70
2022-10-09T10:54:41.247Z,3.20
2022-10-09T10:56:25.001Z,3.30
2022-10-09T10:58:11.617Z,3.17
2022-10-09T10:59:57.758Z,3.20
2022-10-09T11:01:41.693Z,3.55
2022-10-09T11:03:34.583Z,3.05
2022-10-09T11:05:18.929Z,3.63
2022-10-09T11:07:03.162Z,2.95
2022-10-09T11:08:57.306Z,3.00
2022-10-09T11:10:42.934Z,3.25
2022-10-09T11:12:46.810Z,3.30
2022-10-09T11:14:36.447Z,2.58
2022-10-09T11:16:23.610Z,2.95
2022-10-09T11:18:06.033Z,2.80
2022-10-09T11:19:56.271Z,3.03
2022-10-09T11:21:44.014Z,3.15
2022-10-09T11:23:28.185Z,2.63
2022-10-09T11:25:15.948Z,3.25
2022-10-09T11:27:03.163Z,2.85
2022-10-09T11:28:42.277Z,2.50
2022-10-09T11:30:17.960Z,2.75
2022-10-09T11:31:56.419Z,3.30
2022-10-09T11:33:35.842Z,3.08
2022-10-09T11:35:17.118Z,3.00
2022-10-09T11:36:50.406Z,2.80
2022-10-09T11:38:29.734Z,3.13
2022-10-09T11:40:07.631Z,2.88
2022-10-09T11:41:41.881Z,8.75
2022-10-09T11:43:36.898Z,12.05
2022-10-09T11:45:22.117Z,4.07
2022-10-09T11:47:08.892Z,3.20
2022-10-09T11:48:49.700Z,2.60
2022-10-09T11:50:38.148Z,2.60
2022-10-09T11:52:20.288Z,2.50
2022-10-09T11:53:55.231Z,3.38
2022-10-09T11:55:30.763Z,3.13
2022-10-09T11:57:07.067Z,3.95
2022-10-09T11:58:42.812Z,3.38
2022-10-09T12:00:17.008Z,2.80
2022-10-09T12:01:50.337Z,3.95
2022-10-09T12:03:33.216Z,3.72
2022-10-09T12:05:18.317Z,3.50
2022-10-09T12:06:54.575Z,2.45
2022-10-09T12:08:28.870Z,3.83
2022-10-09T12:10:09.501Z,2.58
2022-10-09T12:11:54.446Z,4.15
2022-10-09T12:13:45.984Z,3.28
2022-10-09T12:15:39.204Z,3.25
2022-10-09T12:17:34.234Z,2.72
2022-10-09T12:19:16.781Z,2.75
2022-10-09T12:20:51.974Z,2.97
2022-10-09T12:22:31.335Z,2.80
2022-10-09T12:24:04.974Z,2.70
2022-10-09T12:25:44.034Z,3.30
2022-10-09T12:27:23.243Z,2.42
2022-10-09T12:29:02.965Z,2.55
2022-10-09T12:30:47.477Z,2.60
2022-10-09T12:32:29.525Z,3.03
2022-10-09T12:34:10.181Z,2.25
2022-10-09T12:35:46.056Z,2.92
2022-10-09T12:37:22.521Z,2.20
2022-10-09T12:38:56.963Z,2.38
2022-10-09T12:40:32.885Z,2.45
2022-10-09T12:42:07.098Z,2.65
2022-10-09T12:43:45.848Z,2.35
2022-10-09T12:45:25.227Z,2.55
2022-10-09T12:47:01.885Z,3.78
2022-10-09T12:48:40.077Z,2.60
2022-10-09T12:50:23.223Z,2.47
2022-10-09T12:52:00.437Z,3.00
2022-10-09T12:53:33.719Z,2.35
2022-10-09T12:55:19.082Z,2.67
2022-10-09T12:56:55.572Z,2.55
2022-10-09T12:58:33.449Z,2.45
2022-10-09T13:00:09.021Z,2.50
2022-10-09T13:01:44.640Z,2.65
2022-10-09T13:03:35.477Z,2.60
2022-10-09T13:05:12.594Z,2.75
2022-10-09T13:06:50.819Z,2.67
2022-10-09T13:08:28.108Z,2.67
2022-10-09T13:10:06.739Z,2.60
2022-10-09T13:11:44.550Z,2.88
2022-10-09T13:13:22.648Z,2.53
2022-10-09T13:14:57.477Z,5.25
2022-10-09T13:16:41.010Z,9.13
2022-10-09T13:18:22.707Z,3.20
2022-10-09T13:19:59.385Z,2.40
2022-10-09T13:21:35.376Z,3.83
2022-10-09T13:23:09.098Z,2.70
2022-10-09T13:24:42.374Z,2.60
2022-10-09T13:26:23.767Z,2.55
2022-10-09T13:27:58.150Z,3.30
2022-10-09T13:29:31.572Z,2.72
2022-10-09T13:31:09.428Z,2.33
2022-10-09T13:32:42.643Z,3.42
2022-10-09T13:34:18.975Z,2.20
2022-10-09T13:35:52.388Z,2.55
2022-10-09T13:37:27.644Z,2.60
2022-10-09T13:39:00.838Z,2.35
2022-10-09T13:40:34.099Z,2.65
2022-10-09T13:42:07.777Z,2.13
2022-10-09T13:43:41.069Z,2.40
2022-10-09T13:45:14.289Z,2.40
2022-10-09T13:46:47.405Z,2.55
2022-10-09T13:48:20.818Z,2.38
2022-10-09T13:49:55.748Z,2.30
2022-10-09T13:51:29.249Z,2.58
2022-10-09T13:53:02.460Z,3.67
2022-10-09T13:54:36.032Z,2.35
2022-10-09T13:56:09.661Z,2.58
2022-10-09T13:57:42.762Z,2.33
2022-10-09T13:59:16.079Z,2.97
2022-10-09T14:00:50.226Z,3.20
2022-10-09T14:02:23.784Z,2.42
2022-10-09T14:03:57.313Z,3.50
2022-10-09T14:05:31.853Z,2.97
2022-10-09T14:07:05.081Z,3.28
2022-10-09T14:08:38.690Z,3.20
2022-10-09T14:10:12.061Z,3.00
2022-10-09T14:11:45.313Z,3.33
2022-10-09T14:13:19.479Z,2.88
2022-10-09T14:14:54.513Z,2.65
2022-10-09T14:16:28.008Z,3.05
2022-10-09T14:18:01.184Z,3.28
2022-10-09T14:19:34.447Z,3.45
2022-10-09T14:21:15.258Z,2.75
2022-10-09T14:22:49.491Z,2.90
2022-10-09T14:24:22.938Z,2.78
2022-10-09T14:25:56.303Z,2.30
2022-10-09T14:27:29.641Z,2.55
2022-10-09T14:29:04.161Z,2.80
2022-10-09T14:30:41.306Z,2.88
2022-10-09T14:32:14.984Z,2.67
2022-10-09T14:33:49.413Z,3.20
2022-10-09T14:35:22.630Z,2.83
2022-10-09T14:36:57.262Z,3.10
2022-10-09T14:38:30.694Z,2.40
2022-10-09T14:40:04.263Z,2.60
2022-10-09T14:41:38.061Z,2.50
2022-10-09T14:43:11.568Z,2.47
2022-10-09T14:44:45.210Z,2.78
2022-10-09T14:46:19.394Z,3.25
2022-10-09T14:47:52.573Z,2.70
2022-10-09T14:49:25.799Z,2.92
2022-10-09T14:51:03.147Z,2.80
2022-10-09T14:52:37.781Z,2.67
2022-10-09T14:54:13.325Z,3.45
2022-10-09T14:55:46.566Z,3.28
2022-10-09T14:57:20.258Z,3.15
2022-10-09T14:58:53.388Z,3.20
2022-10-09T15:00:26.564Z,4.03
2022-10-09T15:01:59.819Z,4.38
2022-10-09T15:03:35.385Z,4.30
2022-10-09T15:05:09.139Z,5.15
2022-10-09T15:06:42.357Z,4.10
2022-10-09T15:08:17.080Z,3.88
2022-10-09T15:09:50.264Z,3.97
2022-10-09T15:11:24.096Z,4.25
2022-10-09T15:12:57.231Z,5.07
2022-10-09T15:14:30.683Z,5.75
2022-10-09T15:16:06.190Z,5.63
2022-10-09T15:17:39.994Z,4.13
2022-10-09T15:19:13.163Z,3.72
2022-10-09T15:20:46.816Z,3.75
2022-10-09T15:22:20.394Z,5.97
2022-10-09T15:23:57.077Z,4.95
2022-10-09T15:25:31.756Z,4.80
2022-10-09T15:27:05.734Z,4.85
2022-10-09T15:28:40.979Z,6.28
2022-10-09T15:30:14.585Z,6.55
2022-10-09T15:31:50.911Z,7.53
2022-10-09T15:33:24.958Z,6.13
2022-10-09T15:34:58.276Z,6.80
2022-10-09T15:36:34.790Z,5.05
2022-10-09T15:38:08.789Z,6.13
2022-10-09T15:39:43.429Z,4.35
2022-10-09T15:41:27.342Z,5.10
2022-10-09T15:43:00.462Z,4.15
2022-10-09T15:44:33.734Z,4.38
2022-10-09T15:46:07.172Z,5.70
2022-10-09T15:47:50.895Z,8.48
2022-10-09T15:49:24.715Z,11.50
2022-10-09T15:50:58.045Z,12.10
2022-10-09T15:52:31.227Z,10.00
2022-10-09T15:54:05.367Z,7.45
2022-10-09T15:55:40.293Z,8.07
2022-10-09T15:57:13.475Z,8.43
2022-10-09T15:58:46.593Z,7.57
2022-10-09T16:00:20.117Z,6.80
2022-10-09T16:01:53.289Z,7.97
2022-10-09T16:03:26.552Z,9.75
2022-10-09T16:04:59.743Z,12.32
2022-10-09T16:06:33.322Z,13.10
2022-10-09T16:08:07.363Z,15.35
2022-10-09T16:09:40.580Z,11.30
2022-10-09T16:11:20.167Z,14.68
2022-10-09T16:12:57.150Z,20.70
2022-10-09T16:14:31.420Z,16.75
2022-10-09T16:16:06.924Z,19.35
2022-10-09T16:17:40.167Z,23.33
2022-10-09T16:19:13.883Z,30.33
2022-10-09T16:20:47.927Z,18.15
2022-10-09T16:22:21.026Z,10.52
2022-10-09T16:23:58.876Z,27.20
2022-10-09T16:25:33.201Z,18.38
2022-10-09T16:27:07.725Z,11.27
2022-10-09T16:28:41.054Z,7.88
2022-10-09T16:30:15.123Z,7.63
2022-10-09T16:31:48.621Z,7.53
2022-10-09T16:33:21.840Z,7.95
2022-10-09T16:34:56.075Z,9.40
2022-10-09T16:36:29.717Z,8.93
2022-10-09T16:38:04.799Z,11.10
2022-10-09T16:39:37.947Z,13.90
2022-10-09T16:41:13.327Z,18.60
2022-10-09T16:42:48.164Z,23.00
2022-10-09T16:44:22.089Z,24.52
2022-10-09T16:45:55.379Z,30.50
2022-10-09T16:47:28.817Z,26.67
2022-10-09T16:49:03.498Z,28.42
2022-10-09T16:50:41.692Z,26.48
2022-10-09T16:52:14.925Z,27.65
2022-10-09T16:53:50.675Z,27.90
2022-10-09T16:55:24.557Z,26.20
2022-10-09T16:56:58.550Z,24.85
2022-10-09T16:58:34.293Z,21.83
2022-10-09T17:00:08.357Z,20.58
2022-10-09T17:01:45.214Z,17.20
2022-10-09T17:03:18.519Z,16.35
2022-10-09T17:04:51.644Z,10.10
2022-10-09T17:06:25.486Z,8.80
2022-10-09T17:07:58.698Z,7.70
2022-10-09T17:09:33.506Z,9.68
2022-10-09T17:11:10.644Z,9.95
2022-10-09T17:12:43.804Z,9.10
2022-10-09T17:14:18.484Z,6.57
2022-10-09T17:15:52.349Z,7.28
2022-10-09T17:17:25.596Z,8.90
2022-10-09T17:18:59.186Z,8.45
2022-10-09T17:20:32.548Z,8.70
2022-10-09T17:22:06.498Z,8.63
2022-10-09T17:23:39.994Z,8.15
2022-10-09T17:25:15.666Z,5.97
2022-10-09T17:26:48.961Z,7.75
2022-10-09T17:28:22.216Z,7.18
2022-10-09T17:29:56.888Z,6.50
2022-10-09T17:31:31.145Z,7.28
2022-10-09T17:33:04.363Z,7.50
2022-10-09T17:34:43.046Z,9.07
2022-10-09T17:36:18.412Z,7.75
2022-10-09T17:37:51.822Z,8.95
2022-10-09T17:39:25.076Z,9.73
2022-10-09T17:40:58.553Z,9.02
2022-10-09T17:42:31.735Z,10.95
2022-10-09T17:44:05.761Z,11.88
2022-10-09T17:45:42.946Z,9.88
2022-10-09T17:47:16.437Z,7.55
2022-10-09T17:48:53.326Z,8.43
2022-10-09T17:50:26.634Z,8.77
2022-10-09T17:51:59.921Z,6.22
2022-10-09T17:53:33.973Z,10.20
2022-10-09T17:55:08.411Z,12.63
2022-10-09T17:56:42.286Z,12.60
2022-10-09T17:58:15.486Z,11.75
2022-10-09T17:59:48.714Z,14.65
2022-10-09T18:01:24.338Z,12.93
2022-10-09T18:02:58.262Z,13.50
2022-10-09T18:04:31.509Z,14.38
2022-10-09T18:06:06.940Z,11.43
2022-10-09T18:07:40.185Z,8.82
2022-10-09T18:09:13.520Z,6.95
2022-10-09T18:10:47.098Z,5.95
2022-10-09T18:12:20.567Z,6.68
2022-10-09T18:13:54.523Z,6.10
2022-10-09T18:15:27.893Z,7.63
2022-10-09T18:17:02.520Z,6.25
2022-10-09T18:18:35.117Z,7.32
2022-10-09T18:20:09.207Z,6.60
2022-10-09T18:21:45.500Z,6.72
2022-10-09T18:23:22.558Z,6.65
2022-10-09T18:24:56.169Z,8.32
2022-10-09T18:26:29.952Z,7.60
2022-10-09T18:28:03.703Z,6.43
2022-10-09T18:29:38.230Z,6.22
2022-10-09T18:31:12.491Z,6.25
2022-10-09T18:32:47.330Z,6.47
2022-10-09T18:34:20.753Z,6.70
2022-10-09T18:35:52.917Z,6.97
2022-10-09T18:37:26.300Z,9.45
2022-10-09T18:39:02.506Z,7.75
2022-10-09T18:40:44.528Z,9.20
2022-10-09T18:42:18.803Z,9.90
2022-10-09T18:43:52.991Z,8.27
2022-10-09T18:45:26.471Z,7.75
2022-10-09T18:47:00.900Z,9.13
2022-10-09T18:48:38.307Z,6.85
2022-10-09T18:50:14.141Z,6.80
2022-10-09T18:51:48.783Z,6.38
2022-10-09T18:53:22.035Z,6.72
2022-10-09T18:54:56.491Z,7.07
2022-10-09T18:56:32.319Z,7.15
2022-10-09T18:58:06.175Z,7.28
2022-10-09T18:59:40.584Z,7.20
2022-10-09T19:01:14.091Z,5.78
2022-10-09T19:02:47.668Z,7.22
2022-10-09T19:04:22.494Z,5.55
2022-10-09T19:05:55.697Z,6.10
2022-10-09T19:07:29.582Z,6.30
2022-10-09T19:09:03.297Z,6.53
2022-10-09T19:10:36.810Z,6.80
2022-10-09T19:12:10.222Z,6.65
2022-10-09T19:13:44.261Z,5.60
2022-10-09T19:15:17.987Z,6.43
2022-10-09T19:16:51.229Z,6.43
2022-10-09T19:18:24.554Z,6.10
2022-10-09T19:19:59.179Z,6.07
2022-10-09T19:21:32.502Z,6.25
2022-10-09T19:23:05.680Z,5.90
2022-10-09T19:24:39.135Z,5.53
2022-10-09T19:26:13.847Z,5.70
2022-10-09T19:27:47.180Z,5.88
2022-10-09T19:29:20.831Z,6.18
2022-10-09T19:30:54.549Z,6.35
2022-10-09T19:32:27.881Z,7.20
2022-10-09T19:34:01.254Z,6.70
2022-10-09T19:35:35.895Z,7.22
2022-10-09T19:37:09.032Z,6.70
2022-10-09T19:38:42.668Z,6.80
2022-10-09T19:40:15.908Z,7.03
2022-10-09T19:41:51.211Z,8.32
2022-10-09T19:43:25.519Z,8.95
2022-10-09T19:44:58.973Z,9.23
2022-10-09T19:46:32.196Z,9.68
2022-10-09T19:48:05.854Z,8.55
2022-10-09T19:49:39.083Z,7.32
2022-10-09T19:51:16.271Z,8.45
2022-10-09T19:52:49.662Z,7.90
2022-10-09T19:54:23.027Z,7.47
2022-10-09T19:55:56.394Z,7.85
2022-10-09T19:57:29.665Z,7.28
2022-10-09T19:59:04.905Z,7.68
2022-10-09T20:00:43.049Z,7.25
2022-10-09T20:02:16.409Z,7.32
2022-10-09T20:03:54.343Z,6.38
2022-10-09T20:05:27.985Z,6.38
2022-10-09T20:07:02.518Z,6.60
2022-10-09T20:08:36.001Z,7.00
2022-10-09T20:10:09.989Z,7.22
2022-10-09T20:11:43.843Z,8.73
2022-10-09T20:13:16.992Z,8.95
2022-10-09T20:14:50.233Z,8.23
2022-10-09T20:16:24.576Z,7.18
2022-10-09T20:17:58.024Z,6.68
2022-10-09T20:19:31.618Z,6.63
2022-10-09T20:21:05.398Z,6.55
2022-10-09T20:22:39.991Z,5.78
2022-10-09T20:24:13.240Z,5.53
2022-10-09T20:25:47.518Z,6.60
2022-10-09T20:27:20.774Z,6.82
2022-10-09T20:28:54.980Z,7.75
2022-10-09T20:30:28.111Z,6.30
2022-10-09T20:32:01.289Z,6.32
2022-10-09T20:33:34.719Z,7.20
2022-10-09T20:35:08.942Z,6.93
2022-10-09T20:36:42.307Z,6.55
2022-10-09T20:38:20.855Z,6.90
2022-10-09T20:39:58.256Z,6.85
2022-10-09T20:41:32.812Z,6.45
2022-10-09T20:43:06.141Z,7.70
2022-10-09T20:44:39.339Z,7.95
2022-10-09T20:46:14.736Z,6.53
2022-10-09T20:47:47.895Z,12.85
2022-10-09T20:49:21.172Z,10.15
2022-10-09T20:50:54.362Z,9.65
2022-10-09T20:52:27.594Z,7.65
2022-10-09T20:54:02.800Z,7.63
2022-10-09T20:55:36.343Z,6.43
2022-10-09T20:57:09.637Z,6.60
2022-10-09T20:58:41.853Z,6.63
2022-10-09T21:00:15.401Z,6.22
2022-10-09T21:01:49.092Z,6.63
2022-10-09T21:03:22.542Z,6.85
2022-10-09T21:04:55.650Z,7.07
2022-10-09T21:06:30.211Z,6.45
2022-10-09T21:08:02.390Z,6.40
2022-10-09T21:09:38.084Z,5.88
2022-10-09T21:11:13.412Z,6.20